Scottown, Ohio
Current Conditions -  °F | °C
As of 10:51 AM on Wednesday 28 Jan 2015 (Local Time) from KHTS Reporting Station
Clear Clear  
Wind Chill: 24°   Ceiling: Unl
Heat Index: 24°   Visibility: 10mi
Dew Point: 15°   Wind: 0mph
Humidity: 69%   Direction: NA
Pressure: 30.4"   Gusts: NA
Location:  38.55°N, 82.39°W
Report Text: KHTS 281551Z 00000KT 10SM CLR M04/M09 A3040 RMK AO2 SLP304 T10441094
Loading
Personal Weather Stations






























Interactive Weather Map New forecast layout! Learn more

10-Day Weather Forecast

Advertisements
Track Severe Weather on mobile